Time;durP1;ratioP1;P1;durP2;ratioP2;P2;SDS_P1;SDS_P2;PMS_P1;PMS_P2;Temp;Humidity;BMP_temperature;BMP_pressure;BME280_temperature;BME280_humidity;BME280_pressure;Samples;Min_cycle;Max_cycle;Signal;HPM_P1;HPM_P2
2021/04/28 00:00:33;;;;;;;10.50;7.97;;;9.60;69.60;;;;;;5047659;28;20201;-47
2021/04/28 00:03:01;;;;;;;7.63;6.83;;;9.40;68.00;;;;;;5041593;28;20202;-43
2021/04/28 00:05:26;;;;;;;9.57;7.20;;;9.50;68.10;;;;;;5046450;28;20408;-45
2021/04/28 00:07:53;;;;;;;8.90;8.00;;;9.40;68.10;;;;;;5050070;28;20476;-43
2021/04/28 00:10:23;;;;;;;8.50;7.70;;;9.40;68.90;;;;;;5049312;28;20210;-48
2021/04/28 00:12:48;;;;;;;8.60;7.70;;;9.40;69.00;;;;;;5049637;28;20450;-45
2021/04/28 00:15:18;;;;;;;8.73;7.63;;;9.40;69.10;;;;;;5049436;28;20428;-43
2021/04/28 00:17:45;;;;;;;8.10;7.13;;;9.40;69.20;;;;;;5048011;28;20217;-44
2021/04/28 00:20:12;;;;;;;9.43;7.37;;;9.30;69.30;;;;;;5042675;28;20456;-43
2021/04/28 00:22:39;;;;;;;11.67;8.10;;;9.20;70.10;;;;;;5049574;28;20620;-43
2021/04/28 00:25:08;;;;;;;8.50;7.60;;;9.20;69.70;;;;;;5049385;28;21057;-43
2021/04/28 00:27:35;;;;;;;8.87;7.33;;;9.20;70.50;;;;;;5049344;28;20464;-42
2021/04/28 00:30:02;;;;;;;8.03;7.23;;;9.20;70.20;;;;;;5049088;28;20523;-44
2021/04/28 00:32:28;;;;;;;9.47;7.93;;;9.30;70.20;;;;;;5046479;28;20440;-43
2021/04/28 00:34:53;;;;;;;12.50;8.20;;;9.20;70.40;;;;;;5040790;28;20775;-44
2021/04/28 00:37:19;;;;;;;8.50;7.67;;;9.30;70.10;;;;;;5047664;28;20194;-43
2021/04/28 00:39:45;;;;;;;12.77;8.50;;;9.40;70.40;;;;;;5047779;28;20698;-44
2021/04/28 00:42:10;;;;;;;8.50;7.70;;;9.20;70.90;;;;;;5048981;28;20188;-43
2021/04/28 00:44:36;;;;;;;8.80;7.40;;;9.10;71.20;;;;;;5049372;28;20193;-43
2021/04/28 00:47:02;;;;;;;8.40;7.53;;;9.10;71.00;;;;;;5049138;28;20278;-45
2021/04/28 00:49:27;;;;;;;10.03;7.87;;;9.00;71.00;;;;;;5039064;28;20264;-45
2021/04/28 00:51:54;;;;;;;9.90;7.83;;;9.10;71.80;;;;;;5048881;28;20289;-43
2021/04/28 00:54:20;;;;;;;10.70;7.10;;;8.90;72.30;;;;;;5048255;28;20197;-43
2021/04/28 00:56:45;;;;;;;9.10;7.53;;;8.80;73.60;;;;;;5048920;28;20435;-43
2021/04/28 00:59:12;;;;;;;8.73;7.93;;;8.70;74.60;;;;;;5048520;28;20421;-43
2021/04/28 01:01:39;;;;;;;8.53;7.37;;;8.70;75.70;;;;;;5049394;28;20194;-44
2021/04/28 01:04:06;;;;;;;11.67;7.73;;;8.70;75.90;;;;;;5058620;28;21102;-43
2021/04/28 01:06:32;;;;;;;8.43;7.00;;;8.50;76.20;;;;;;5047511;28;21115;-43
2021/04/28 01:08:59;;;;;;;9.60;8.23;;;8.40;76.60;;;;;;5048409;28;20850;-46
2021/04/28 01:11:26;;;;;;;9.47;8.47;;;8.40;78.00;;;;;;5048867;28;20558;-44
2021/04/28 01:13:52;;;;;;;8.03;7.13;;;8.50;77.20;;;;;;5047715;28;20427;-42
2021/04/28 01:16:18;;;;;;;9.93;8.40;;;8.50;77.10;;;;;;5048831;28;20445;-42
2021/04/28 01:18:44;;;;;;;11.17;7.50;;;8.50;76.70;;;;;;5040405;28;20486;-43
2021/04/28 01:21:09;;;;;;;8.43;7.47;;;8.60;77.00;;;;;;5046693;28;20286;-43
2021/04/28 01:23:35;;;;;;;9.37;8.13;;;8.60;76.30;;;;;;5047406;28;20193;-42
2021/04/28 01:26:01;;;;;;;9.97;7.73;;;8.40;76.50;;;;;;5048091;28;20402;-43
2021/04/28 01:28:27;;;;;;;8.60;7.70;;;8.70;78.00;;;;;;5048674;28;20625;-42
2021/04/28 01:31:12;;;;;;;8.57;7.50;;;8.40;78.50;;;;;;5047690;28;20404;-43
2021/04/28 01:33:47;;;;;;;9.33;7.83;;;8.20;80.80;;;;;;5040099;28;20532;-46
2021/04/28 01:36:21;;;;;;;8.63;7.77;;;8.10;83.60;;;;;;5045313;28;20476;-43
2021/04/28 01:38:51;;;;;;;9.87;7.97;;;7.80;85.20;;;;;;5048355;28;20423;-42
2021/04/28 01:41:17;;;;;;;8.23;7.20;;;7.60;86.70;;;;;;5047187;28;20428;-44
2021/04/28 01:43:44;;;;;;;13.53;8.77;;;7.50;87.60;;;;;;5048324;28;20462;-44
2021/04/28 01:46:11;;;;;;;9.97;8.47;;;7.50;88.60;;;;;;5048043;28;20467;-44
2021/04/28 01:48:42;;;;;;;8.77;7.87;;;7.40;89.90;;;;;;5041000;28;20494;-42
2021/04/28 01:51:09;;;;;;;9.30;8.07;;;7.30;90.50;;;;;;5046181;28;20424;-42
2021/04/28 01:53:37;;;;;;;9.87;8.87;;;7.10;91.20;;;;;;5048162;28;20957;-46
2021/04/28 01:56:03;;;;;;;9.03;8.23;;;7.30;91.80;;;;;;5047914;28;20907;-43
2021/04/28 01:58:30;;;;;;;9.63;8.40;;;6.90;92.10;;;;;;5048099;28;20951;-42
2021/04/28 02:00:58;;;;;;;13.10;8.37;;;7.00;92.50;;;;;;5046225;28;20424;-46
2021/04/28 02:03:24;;;;;;;9.73;8.73;;;6.80;93.10;;;;;;5043103;28;20449;-44
2021/04/28 02:05:51;;;;;;;9.27;8.30;;;6.90;93.60;;;;;;5035917;28;20420;-45
2021/04/28 02:08:18;;;;;;;9.67;8.20;;;6.50;93.80;;;;;;5047600;28;20841;-42
2021/04/28 02:10:44;;;;;;;11.23;8.00;;;6.50;94.10;;;;;;5047386;28;20416;-43
2021/04/28 02:13:15;;;;;;;10.80;8.70;;;6.50;94.90;;;;;;5046495;28;20466;-43
2021/04/28 02:15:41;;;;;;;10.60;8.27;;;6.80;95.10;;;;;;5047681;28;20435;-43
2021/04/28 02:18:08;;;;;;;9.00;8.10;;;6.60;95.20;;;;;;5046369;28;20903;-42
2021/04/28 02:20:34;;;;;;;10.20;8.97;;;6.80;95.10;;;;;;5035746;28;20409;-44
2021/04/28 02:23:03;;;;;;;11.13;8.77;;;6.70;95.30;;;;;;5047074;28;20419;-43
2021/04/28 02:25:29;;;;;;;10.20;8.23;;;6.60;95.40;;;;;;5047523;28;20412;-45
2021/04/28 02:27:55;;;;;;;10.50;8.60;;;6.80;95.50;;;;;;5047502;28;20467;-43
2021/04/28 02:30:23;;;;;;;10.23;8.60;;;6.80;95.50;;;;;;5046603;28;20423;-43
2021/04/28 02:32:50;;;;;;;10.90;8.80;;;6.70;95.60;;;;;;5047452;28;20197;-44
2021/04/28 02:35:18;;;;;;;10.60;9.60;;;6.70;95.60;;;;;;5037798;28;20506;-42
2021/04/28 02:37:47;;;;;;;14.00;9.40;;;6.60;95.90;;;;;;5047042;28;20424;-44
2021/04/28 02:40:15;;;;;;;10.70;9.40;;;6.80;96.00;;;;;;5056166;28;20447;-45
2021/04/28 02:42:43;;;;;;;12.63;9.50;;;6.80;96.10;;;;;;5043995;28;20423;-43
2021/04/28 02:45:12;;;;;;;11.53;9.80;;;6.70;96.60;;;;;;5067025;28;20767;-45
2021/04/28 02:47:40;;;;;;;9.90;8.90;;;6.60;96.70;;;;;;5066070;28;20491;-45
2021/04/28 02:50:08;;;;;;;9.47;8.50;;;6.40;96.60;;;;;;5044583;28;20429;-42
2021/04/28 02:52:34;;;;;;;10.27;9.10;;;6.60;96.70;;;;;;5047144;28;21010;-43
2021/04/28 02:55:01;;;;;;;17.00;9.33;;;6.40;96.90;;;;;;5047186;28;20427;-44
2021/04/28 02:57:28;;;;;;;9.80;8.80;;;6.30;97.10;;;;;;5046913;28;20450;-45
2021/04/28 02:59:54;;;;;;;10.40;9.43;;;6.30;97.50;;;;;;5046550;28;20824;-43
2021/04/28 03:02:20;;;;;;;11.50;9.70;;;6.40;97.60;;;;;;5047144;28;20506;-43
2021/04/28 03:04:46;;;;;;;10.60;9.50;;;6.30;97.60;;;;;;5038761;28;20503;-43
2021/04/28 03:07:14;;;;;;;11.23;9.70;;;6.40;97.80;;;;;;5045769;28;20475;-44
2021/04/28 03:09:41;;;;;;;10.30;9.30;;;6.40;97.90;;;;;;5046396;28;20416;-46
2021/04/28 03:12:07;;;;;;;11.87;10.30;;;6.40;98.20;;;;;;5044955;28;20443;-46
2021/04/28 03:14:33;;;;;;;11.80;9.80;;;6.20;98.40;;;;;;5047146;28;20423;-43
2021/04/28 03:16:59;;;;;;;10.50;9.33;;;6.20;98.70;;;;;;5045298;28;20436;-46
2021/04/28 03:19:25;;;;;;;10.30;9.20;;;6.00;98.70;;;;;;5041103;28;20540;-43
2021/04/28 03:21:51;;;;;;;12.60;9.80;;;6.20;98.80;;;;;;5049931;28;20193;-42
2021/04/28 03:24:19;;;;;;;12.07;10.57;;;6.20;98.80;;;;;;5051291;28;20431;-44
2021/04/28 03:26:45;;;;;;;10.83;9.83;;;6.20;99.10;;;;;;5050624;28;20466;-43
2021/04/28 03:29:11;;;;;;;12.37;10.83;;;6.00;99.00;;;;;;5050407;28;20412;-42
2021/04/28 03:31:37;;;;;;;10.80;9.80;;;6.20;99.30;;;;;;5051021;28;20470;-43
2021/04/28 03:34:03;;;;;;;11.63;10.10;;;6.00;99.40;;;;;;5048636;28;20193;-42
2021/04/28 03:36:29;;;;;;;11.03;9.93;;;6.20;99.40;;;;;;5046267;28;20186;-43
2021/04/28 03:38:55;;;;;;;11.27;10.07;;;6.20;99.50;;;;;;5050131;28;20823;-46
2021/04/28 03:41:22;;;;;;;14.43;10.17;;;6.20;99.20;;;;;;5050555;28;20420;-44
2021/04/28 03:43:48;;;;;;;12.90;9.47;;;6.00;99.50;;;;;;5050652;28;20186;-43
2021/04/28 03:46:15;;;;;;;14.33;10.00;;;5.80;99.80;;;;;;5050518;28;21147;-44
2021/04/28 03:48:40;;;;;;;11.23;10.23;;;5.70;99.80;;;;;;5048471;28;20190;-44
2021/04/28 03:51:06;;;;;;;12.93;9.60;;;5.70;99.90;;;;;;5042270;28;20481;-43
2021/04/28 03:53:32;;;;;;;10.40;9.27;;;5.70;99.90;;;;;;5050417;28;20194;-44
2021/04/28 03:55:58;;;;;;;10.40;9.30;;;5.80;99.90;;;;;;5050229;28;20621;-43
2021/04/28 03:58:23;;;;;;;12.33;10.77;;;5.60;99.90;;;;;;5050089;28;20190;-42
2021/04/28 04:00:49;;;;;;;12.67;11.47;;;5.60;99.90;;;;;;5049693;28;20428;-42
2021/04/28 04:03:15;;;;;;;17.30;10.70;;;5.80;99.90;;;;;;5050483;28;20197;-42
2021/04/28 04:05:41;;;;;;;13.33;10.30;;;5.80;99.90;;;;;;5039931;28;20548;-45
2021/04/28 04:08:07;;;;;;;13.10;10.50;;;5.90;99.90;;;;;;5049968;28;20459;-43
2021/04/28 04:10:32;;;;;;;12.47;10.60;;;6.00;99.90;;;;;;5049017;28;20200;-43
2021/04/28 04:12:58;;;;;;;16.20;10.70;;;5.90;99.90;;;;;;5049993;28;20273;-43
2021/04/28 04:15:24;;;;;;;11.70;10.50;;;6.10;99.90;;;;;;5050114;28;20245;-42
2021/04/28 04:17:49;;;;;;;14.17;11.27;;;6.10;99.90;;;;;;5050002;28;20292;-43
2021/04/28 04:20:15;;;;;;;14.20;11.07;;;6.00;99.90;;;;;;5044803;28;20212;-42
2021/04/28 04:22:41;;;;;;;10.83;9.73;;;5.90;99.90;;;;;;5045195;28;20198;-44
2021/04/28 04:25:07;;;;;;;12.23;10.57;;;6.00;99.90;;;;;;5049534;28;20194;-42
2021/04/28 04:27:33;;;;;;;14.80;10.77;;;6.00;99.90;;;;;;5049740;28;20520;-43
2021/04/28 04:30:04;;;;;;;13.17;10.70;;;6.10;99.90;;;;;;5048873;28;20427;-43
2021/04/28 04:32:30;;;;;;;14.17;11.00;;;6.00;99.90;;;;;;5049013;28;20475;-42
2021/04/28 04:34:56;;;;;;;13.07;10.90;;;6.00;99.90;;;;;;5043162;28;20989;-47
2021/04/28 04:37:21;;;;;;;13.27;11.90;;;6.00;99.90;;;;;;5040611;28;20244;-43
2021/04/28 04:39:47;;;;;;;17.87;12.57;;;6.00;99.90;;;;;;5048848;28;20228;-44
2021/04/28 04:42:13;;;;;;;17.70;11.90;;;5.80;99.90;;;;;;5049043;28;20344;-44
2021/04/28 04:44:39;;;;;;;14.90;12.17;;;5.90;99.90;;;;;;5049242;28;20194;-43
2021/04/28 04:47:05;;;;;;;17.73;13.27;;;6.00;99.90;;;;;;5049051;28;21339;-43
2021/04/28 04:49:30;;;;;;;21.17;12.70;;;5.90;99.90;;;;;;5048657;28;20416;-43
2021/04/28 04:51:56;;;;;;;17.00;11.60;;;6.00;99.90;;;;;;5038397;28;20221;-42
2021/04/28 04:54:22;;;;;;;22.27;12.43;;;5.90;99.90;;;;;;5048484;28;20184;-42
2021/04/28 04:56:48;;;;;;;16.80;12.37;;;6.10;99.90;;;;;;5045021;28;20720;-44
2021/04/28 04:59:14;;;;;;;15.73;11.20;;;6.10;99.90;;;;;;5050682;28;20232;-46
2021/04/28 05:01:40;;;;;;;14.43;11.90;;;6.10;99.90;;;;;;5048440;28;20447;-43
2021/04/28 05:04:05;;;;;;;13.07;11.73;;;6.30;99.90;;;;;;5046931;28;20420;-42
2021/04/28 05:06:32;;;;;;;11.10;10.00;;;6.70;99.90;;;;;;5037430;28;20461;-44
2021/04/28 05:08:58;;;;;;;17.90;13.07;;;6.70;99.50;;;;;;5046076;28;20228;-43
2021/04/28 05:11:23;;;;;;;12.30;11.00;;;6.80;99.30;;;;;;5047427;28;20417;-47
2021/04/28 05:13:49;;;;;;;17.50;11.10;;;6.80;99.40;;;;;;5051721;28;20422;-46
2021/04/28 05:16:15;;;;;;;14.20;11.60;;;7.10;99.10;;;;;;5067224;28;20567;-46
2021/04/28 05:18:40;;;;;;;14.30;11.80;;;7.00;99.00;;;;;;5066658;28;20197;-43
2021/04/28 05:21:06;;;;;;;13.67;11.00;;;7.10;99.00;;;;;;5044730;28;20326;-45
2021/04/28 05:23:32;;;;;;;12.30;11.00;;;7.10;99.10;;;;;;5046821;28;20233;-45
2021/04/28 05:25:58;;;;;;;13.73;11.77;;;7.00;99.00;;;;;;5046606;28;20432;-42
2021/04/28 05:28:23;;;;;;;14.70;11.10;;;7.30;98.90;;;;;;5046687;28;20660;-42
2021/04/28 05:30:49;;;;;;;18.17;12.40;;;7.30;98.80;;;;;;5045978;28;20727;-42
2021/04/28 05:33:15;;;;;;;13.63;11.93;;;7.70;98.30;;;;;;5046828;28;20212;-43
2021/04/28 05:35:40;;;;;;;16.43;12.67;;;7.50;98.10;;;;;;5036496;28;20221;-43
2021/04/28 05:38:06;;;;;;;15.63;12.93;;;7.60;98.30;;;;;;5036674;28;20925;-43
2021/04/28 05:40:32;;;;;;;12.90;11.70;;;7.90;98.10;;;;;;5045171;28;20224;-44
2021/04/28 05:42:57;;;;;;;16.40;11.70;;;8.00;98.10;;;;;;5064841;28;20247;-42
2021/04/28 05:45:23;;;;;;;14.63;13.03;;;8.10;97.70;;;;;;5039476;28;20186;-42
2021/04/28 05:47:49;;;;;;;14.20;12.77;;;8.30;97.40;;;;;;5046289;28;20258;-47
2021/04/28 05:50:16;;;;;;;13.43;12.03;;;8.70;96.60;;;;;;5043009;28;20435;-43
2021/04/28 05:52:42;;;;;;;13.07;11.67;;;8.80;95.60;;;;;;5034330;28;20181;-44
2021/04/28 05:55:10;;;;;;;14.53;11.60;;;9.20;94.80;;;;;;5028397;28;20496;-45
2021/04/28 05:57:36;;;;;;;13.13;11.77;;;9.70;94.40;;;;;;5046152;28;20502;-43
2021/04/28 06:00:06;;;;;;;14.03;11.67;;;9.90;93.60;;;;;;5045841;28;20537;-43
2021/04/28 06:02:32;;;;;;;12.73;11.53;;;10.30;92.40;;;;;;5046369;28;20431;-44
2021/04/28 06:04:58;;;;;;;15.30;11.40;;;10.70;91.70;;;;;;5045943;28;20790;-44
2021/04/28 06:07:23;;;;;;;15.53;11.80;;;11.00;90.70;;;;;;5033741;28;20205;-44
2021/04/28 06:09:49;;;;;;;13.67;12.20;;;11.30;90.50;;;;;;5045551;28;20267;-43
2021/04/28 06:12:15;;;;;;;14.00;11.33;;;11.50;90.10;;;;;;5042985;28;20186;-45
2021/04/28 06:14:41;;;;;;;12.53;11.23;;;11.70;89.40;;;;;;5045320;28;20186;-43
2021/04/28 06:17:06;;;;;;;12.50;10.80;;;11.90;89.10;;;;;;5045199;28;20332;-43
2021/04/28 06:19:33;;;;;;;12.00;10.83;;;12.00;87.20;;;;;;5040829;28;20189;-43
2021/04/28 06:21:59;;;;;;;12.80;11.03;;;12.20;86.60;;;;;;5041460;28;20344;-45
2021/04/28 06:24:25;;;;;;;13.73;11.17;;;12.50;85.70;;;;;;5045245;28;20519;-46
2021/04/28 06:26:50;;;;;;;15.10;10.63;;;12.60;84.80;;;;;;5050081;28;20219;-43
2021/04/28 06:29:17;;;;;;;14.97;11.73;;;12.70;83.80;;;;;;5044064;28;20174;-43
2021/04/28 06:31:42;;;;;;;12.17;10.33;;;12.60;83.60;;;;;;5043803;28;20179;-44
2021/04/28 06:34:08;;;;;;;13.70;11.87;;;12.80;83.90;;;;;;5042189;28;20431;-44
2021/04/28 06:36:34;;;;;;;11.97;10.67;;;12.80;83.20;;;;;;5034757;28;20197;-43
2021/04/28 06:39:00;;;;;;;14.77;11.90;;;13.00;83.30;;;;;;5043170;28;20263;-43
2021/04/28 06:41:26;;;;;;;13.30;11.10;;;13.30;82.50;;;;;;5041700;28;20436;-44
2021/04/28 06:43:51;;;;;;;12.03;10.80;;;13.60;81.30;;;;;;5042223;28;20190;-43
2021/04/28 06:46:18;;;;;;;15.63;11.37;;;13.70;79.70;;;;;;5041149;28;20205;-44
2021/04/28 06:48:43;;;;;;;12.53;10.43;;;13.80;79.30;;;;;;5043794;28;20178;-42
2021/04/28 06:51:09;;;;;;;11.80;10.60;;;13.90;76.90;;;;;;5042986;28;20437;-49
2021/04/28 07:10:07;;;;;;;15.03;11.70;;;14.50;73.10;;;;;;5104245;27;20564;-49
2021/04/28 07:12:33;;;;;;;12.17;10.97;;;14.60;74.40;;;;;;5096771;28;20423;-51
2021/04/28 07:14:59;;;;;;;12.13;11.03;;;14.60;72.60;;;;;;5101266;28;21152;-48
2021/04/28 07:17:25;;;;;;;11.83;10.50;;;14.50;71.60;;;;;;5066947;28;20924;-51
2021/04/28 07:19:52;;;;;;;11.97;10.60;;;14.50;72.00;;;;;;5084437;28;20251;-48
2021/04/28 07:22:18;;;;;;;12.37;10.30;;;14.60;72.10;;;;;;5070799;28;20189;-48
2021/04/28 07:25:04;;;;;;;12.03;10.20;;;14.70;72.10;;;;;;5083488;28;20446;-49
2021/04/28 07:27:50;;;;;;;12.57;11.27;;;14.80;73.30;;;;;;5081881;28;21028;-49
2021/04/28 07:30:36;;;;;;;12.70;11.40;;;14.90;73.00;;;;;;5082259;28;20442;-48
2021/04/28 07:33:22;;;;;;;13.53;11.80;;;15.10;72.20;;;;;;5085748;28;20901;-50
2021/04/28 07:36:08;;;;;;;12.97;10.87;;;15.00;71.80;;;;;;5079763;28;20430;-52
2021/04/28 07:38:54;;;;;;;12.60;11.27;;;15.00;73.20;;;;;;5082743;28;20942;-49
2021/04/28 07:41:39;;;;;;;15.30;11.63;;;14.90;72.70;;;;;;5102490;28;20521;-51
2021/04/28 07:44:25;;;;;;;12.13;10.93;;;14.70;72.10;;;;;;5097887;28;20417;-49
2021/04/28 07:47:11;;;;;;;13.13;11.83;;;14.70;74.50;;;;;;5102645;28;20421;-51
2021/04/28 07:49:57;;;;;;;13.87;11.70;;;14.80;73.60;;;;;;5087745;28;20741;-48
2021/04/28 07:52:43;;;;;;;13.80;11.70;;;14.80;72.50;;;;;;5085409;28;20934;-50
2021/04/28 07:55:29;;;;;;;12.33;10.53;;;15.00;73.40;;;;;;5095882;28;20530;-52
2021/04/28 07:58:16;;;;;;;11.23;10.13;;;14.90;74.60;;;;;;5101365;28;20447;-51
2021/04/28 08:01:01;;;;;;;11.70;10.60;;;14.90;73.90;;;;;;5100605;28;20421;-49
2021/04/28 08:03:47;;;;;;;12.83;11.43;;;14.90;70.20;;;;;;5098771;28;20422;-52
2021/04/28 08:06:33;;;;;;;13.37;11.00;;;14.90;72.80;;;;;;5077922;28;20453;-50
2021/04/28 08:09:18;;;;;;;13.90;11.30;;;15.10;73.20;;;;;;5097853;28;20488;-48
2021/04/28 08:12:05;;;;;;;14.50;12.27;;;15.20;75.00;;;;;;5108592;28;20436;-50
2021/04/28 08:14:51;;;;;;;12.43;10.63;;;15.20;71.80;;;;;;5101037;28;20425;-46
2021/04/28 08:17:39;;;;;;;12.23;10.93;;;15.40;74.70;;;;;;5109248;28;20572;-48
2021/04/28 08:20:24;;;;;;;13.97;11.50;;;15.40;72.20;;;;;;5092860;28;20937;-49
2021/04/28 08:23:10;;;;;;;13.07;11.77;;;15.50;73.00;;;;;;5092349;28;20429;-48
2021/04/28 08:26:02;;;;;;;11.67;10.50;;;15.60;73.70;;;;;;5077872;28;20453;-49
2021/04/28 08:28:49;;;;;;;16.77;10.83;;;15.70;72.40;;;;;;5088070;28;20462;-51
2021/04/28 08:31:34;;;;;;;11.90;10.07;;;15.90;71.30;;;;;;5088875;28;20781;-50
2021/04/28 08:34:20;;;;;;;12.20;9.37;;;16.00;70.90;;;;;;5087737;28;20527;-51
2021/04/28 08:37:06;;;;;;;10.27;9.27;;;16.10;68.20;;;;;;5090956;28;20512;-53
2021/04/28 08:39:52;;;;;;;14.17;9.77;;;16.10;64.80;;;;;;5096432;28;20425;-50
2021/04/28 08:42:38;;;;;;;10.17;9.07;;;16.10;66.50;;;;;;5108327;28;20445;-49
2021/04/28 08:45:23;;;;;;;11.90;9.57;;;16.20;65.20;;;;;;5108891;28;20856;-48
2021/04/28 08:48:09;;;;;;;11.00;9.93;;;16.20;64.20;;;;;;5108840;28;20556;-48
2021/04/28 08:50:55;;;;;;;11.93;10.50;;;16.30;65.50;;;;;;5092587;28;20441;-46
2021/04/28 08:53:42;;;;;;;10.13;8.80;;;16.30;64.80;;;;;;5081452;28;20415;-49
2021/04/28 08:56:27;;;;;;;13.10;9.57;;;16.40;62.70;;;;;;5108782;28;20440;-49
2021/04/28 08:59:13;;;;;;;10.40;9.23;;;16.50;60.90;;;;;;5096608;28;20472;-48
2021/04/28 09:02:21;;;;;;;10.23;8.60;;;16.60;61.50;;;;;;5107460;28;20524;-46
2021/04/28 09:05:11;;;;;;;9.70;8.70;;;16.80;60.10;;;;;;5098607;28;20453;-49
2021/04/28 09:07:57;;;;;;;10.17;8.23;;;16.90;62.60;;;;;;5084978;28;20541;-51
2021/04/28 09:10:43;;;;;;;8.80;7.90;;;17.00;59.80;;;;;;5087205;28;20434;-49
2021/04/28 09:13:28;;;;;;;9.00;8.10;;;17.00;58.90;;;;;;5087167;28;20972;-52
2021/04/28 09:15:54;;;;;;;9.70;8.10;;;17.10;60.20;;;;;;5075812;28;20419;-49
2021/04/28 09:18:34;;;;;;;12.37;9.23;;;17.20;56.80;;;;;;5099308;28;20264;-49
2021/04/28 09:21:00;;;;;;;9.33;8.33;;;17.30;56.60;;;;;;5090158;28;20194;-50
2021/04/28 09:23:44;;;;;;;11.50;8.50;;;17.40;55.30;;;;;;5086346;28;20528;-50
2021/04/28 09:26:32;;;;;;;9.53;8.47;;;17.40;57.60;;;;;;5103150;28;20421;-51
2021/04/28 09:29:21;;;;;;;9.53;8.53;;;17.50;57.60;;;;;;5104096;28;21044;-50
2021/04/28 09:32:08;;;;;;;8.90;8.00;;;17.70;57.10;;;;;;5097568;28;20954;-50
2021/04/28 09:34:54;;;;;;;10.20;8.00;;;17.90;55.10;;;;;;5087174;28;20425;-52
2021/04/28 09:37:20;;;;;;;9.53;8.23;;;18.20;57.90;;;;;;5089920;28;20419;-47
2021/04/28 09:39:48;;;;;;;11.07;8.30;;;18.40;55.80;;;;;;5089664;28;20184;-48
2021/04/28 09:42:19;;;;;;;9.17;7.93;;;18.60;55.70;;;;;;5094321;28;20180;-47
2021/04/28 09:44:49;;;;;;;8.63;7.50;;;18.90;55.90;;;;;;5096482;28;20426;-52
2021/04/28 09:47:15;;;;;;;10.40;8.13;;;19.20;55.20;;;;;;5085818;28;20419;-49
2021/04/28 09:49:56;;;;;;;9.30;8.30;;;19.20;54.50;;;;;;5086217;28;20545;-50
2021/04/28 09:52:33;;;;;;;9.20;8.30;;;19.50;54.00;;;;;;5087341;28;20418;-48
2021/04/28 09:55:05;;;;;;;9.40;8.03;;;19.50;51.80;;;;;;5097359;28;20410;-49
2021/04/28 09:57:42;;;;;;;12.13;9.27;;;19.60;53.90;;;;;;5107406;28;20782;-47
2021/04/28 10:00:29;;;;;;;11.63;8.67;;;19.70;53.50;;;;;;5090126;28;20416;-49
2021/04/28 10:03:15;;;;;;;9.53;8.57;;;19.80;53.60;;;;;;5091966;28;20453;-49
2021/04/28 10:06:01;;;;;;;14.03;8.40;;;19.90;52.90;;;;;;5088872;28;20506;-50
2021/04/28 10:08:47;;;;;;;9.83;8.80;;;20.10;53.90;;;;;;5094099;28;20834;-51
2021/04/28 10:11:33;;;;;;;9.07;8.17;;;20.10;51.70;;;;;;5099082;28;20814;-49
2021/04/28 10:14:19;;;;;;;10.23;8.87;;;20.10;52.70;;;;;;5090321;28;20532;-49
2021/04/28 10:17:07;;;;;;;11.27;9.40;;;20.30;54.00;;;;;;5083073;28;20602;-51
2021/04/28 10:19:56;;;;;;;10.53;9.30;;;20.40;53.80;;;;;;5086141;28;20406;-52
2021/04/28 10:22:44;;;;;;;10.00;9.00;;;20.60;52.90;;;;;;5091754;28;20502;-52
2021/04/28 10:25:30;;;;;;;14.60;9.10;;;20.50;52.80;;;;;;5091543;28;20483;-48
2021/04/28 10:28:16;;;;;;;12.73;8.70;;;20.50;52.60;;;;;;5089745;28;20470;-51
2021/04/28 10:31:04;;;;;;;11.30;9.03;;;20.50;51.00;;;;;;5084311;28;20420;-42
2021/04/28 10:33:50;;;;;;;13.13;8.20;;;20.60;49.00;;;;;;5083818;28;20415;-58
2021/04/28 10:36:37;;;;;;;10.00;8.83;;;20.80;48.30;;;;;;5093000;28;20498;-59
2021/04/28 10:39:24;;;;;;;12.30;9.47;;;20.70;51.60;;;;;;5097248;28;20421;-61
2021/04/28 10:42:36;;;;;;;9.20;8.17;;;20.70;51.40;;;;;;5068159;28;20830;-61
2021/04/28 10:45:24;;;;;;;11.70;8.30;;;20.70;51.30;;;;;;5090744;28;20433;-63
2021/04/28 10:48:17;;;;;;;10.77;9.47;;;20.70;52.20;;;;;;5083573;28;20524;-61
2021/04/28 10:51:03;;;;;;;9.47;8.50;;;20.60;50.00;;;;;;5093505;28;20719;-61
2021/04/28 10:53:49;;;;;;;10.10;8.67;;;20.40;50.00;;;;;;5071569;28;20421;-61
2021/04/28 10:56:57;;;;;;;8.43;7.57;;;20.30;51.80;;;;;;5086043;28;20422;-60
2021/04/28 10:59:43;;;;;;;8.80;7.93;;;20.20;51.40;;;;;;5084485;28;20414;-61
2021/04/28 11:02:32;;;;;;;9.93;8.80;;;20.20;52.00;;;;;;5096938;28;20434;-60
2021/04/28 11:05:27;;;;;;;9.97;8.50;;;20.10;50.00;;;;;;5089563;28;20794;-60
2021/04/28 11:08:12;;;;;;;8.67;7.70;;;19.90;49.30;;;;;;5083946;28;21027;-60
2021/04/28 11:10:58;;;;;;;8.50;7.63;;;19.90;50.70;;;;;;5086669;28;20413;-60
2021/04/28 11:13:44;;;;;;;8.30;7.50;;;19.90;47.20;;;;;;5106398;28;20421;-60
2021/04/28 11:16:53;;;;;;;11.90;9.60;;;19.90;47.10;;;;;;5100026;28;20417;-61
2021/04/28 11:19:38;;;;;;;9.33;8.30;;;19.80;49.40;;;;;;5105830;28;20958;-60
2021/04/28 11:22:30;;;;;;;9.50;8.50;;;19.90;50.40;;;;;;5092168;28;20532;-60
2021/04/28 11:25:17;;;;;;;10.13;9.13;;;19.90;51.90;;;;;;5075755;28;20428;-60
2021/04/28 11:28:06;;;;;;;10.77;9.60;;;19.80;50.10;;;;;;5085796;28;20505;-60
2021/04/28 11:30:52;;;;;;;10.73;9.63;;;19.90;51.30;;;;;;5085759;28;20429;-60
2021/04/28 11:33:38;;;;;;;9.80;8.80;;;19.80;50.00;;;;;;5086171;28;20917;-60
2021/04/28 11:36:25;;;;;;;12.40;10.20;;;19.80;53.90;;;;;;5084846;28;20964;-59
2021/04/28 11:39:11;;;;;;;9.13;8.23;;;19.90;51.10;;;;;;5081661;28;20902;-59
2021/04/28 11:42:11;;;;;;;11.97;8.70;;;19.90;53.80;;;;;;5092102;28;20828;-59
2021/04/28 11:44:57;;;;;;;8.70;7.90;;;20.10;50.00;;;;;;5100745;28;20433;-58
2021/04/28 11:47:43;;;;;;;10.43;7.97;;;20.10;47.20;;;;;;5107169;28;20418;-58
2021/04/28 11:50:28;;;;;;;8.53;7.83;;;20.10;46.10;;;;;;5109116;28;20959;-59
2021/04/28 11:53:14;;;;;;;10.13;8.20;;;20.00;46.80;;;;;;5083731;28;20794;-58
2021/04/28 11:56:00;;;;;;;11.27;8.70;;;19.90;47.80;;;;;;5085854;28;20421;-57
2021/04/28 11:58:45;;;;;;;9.27;8.30;;;20.00;48.60;;;;;;5109010;28;20998;-59
2021/04/28 12:01:35;;;;;;;12.43;9.10;;;20.10;47.50;;;;;;5103314;28;20947;-58
2021/04/28 12:04:37;;;;;;;10.97;9.70;;;20.00;47.40;;;;;;5108742;28;20417;-59
2021/04/28 12:07:22;;;;;;;9.70;8.67;;;19.90;46.80;;;;;;5101441;28;20433;-59
2021/04/28 12:10:15;;;;;;;11.80;8.60;;;19.90;50.00;;;;;;5080943;28;20423;-59
2021/04/28 12:13:00;;;;;;;9.47;8.50;;;20.00;51.90;;;;;;5100538;28;21027;-59
2021/04/28 12:15:54;;;;;;;9.87;8.67;;;20.00;48.00;;;;;;5089199;28;20422;-58
2021/04/28 12:18:40;;;;;;;10.83;8.10;;;20.10;49.90;;;;;;5088419;28;20426;-59
2021/04/28 12:21:25;;;;;;;10.97;9.27;;;20.10;51.80;;;;;;5088873;28;20430;-59
2021/04/28 12:24:11;;;;;;;11.50;8.90;;;20.20;50.70;;;;;;5083697;28;20439;-59
2021/04/28 12:27:11;;;;;;;9.87;8.83;;;20.20;48.10;;;;;;5090082;28;20959;-59
2021/04/28 12:29:58;;;;;;;11.37;8.90;;;20.20;47.90;;;;;;5108460;28;20429;-59
2021/04/28 12:32:46;;;;;;;10.60;8.43;;;20.30;50.80;;;;;;5103321;28;20850;-58
2021/04/28 12:35:36;;;;;;;9.80;8.80;;;20.30;50.70;;;;;;5098684;28;20967;-58
2021/04/28 12:38:21;;;;;;;10.00;9.00;;;20.50;51.00;;;;;;5087614;28;20986;-59
2021/04/28 12:41:07;;;;;;;10.20;8.40;;;20.50;50.50;;;;;;5090953;28;20418;-58
2021/04/28 12:43:53;;;;;;;10.83;9.73;;;20.60;49.40;;;;;;5101088;28;20414;-58
2021/04/28 12:46:38;;;;;;;10.23;8.00;;;20.60;47.00;;;;;;5105735;28;20418;-59
2021/04/28 12:49:24;;;;;;;9.90;8.90;;;20.60;48.70;;;;;;5108080;28;20522;-57
2021/04/28 12:52:15;;;;;;;10.00;8.90;;;20.70;49.70;;;;;;5106468;28;20420;-59
2021/04/28 12:55:28;;;;;;;12.43;8.90;;;20.80;49.70;;;;;;5091089;28;20423;-58
2021/04/28 12:58:18;;;;;;;8.70;7.90;;;20.70;48.10;;;;;;5084603;28;20491;-58
2021/04/28 13:01:15;;;;;;;9.50;8.50;;;20.70;50.80;;;;;;5086113;28;20471;-57
2021/04/28 13:04:01;;;;;;;9.60;8.60;;;20.80;48.20;;;;;;5088166;28;20509;-58
2021/04/28 13:06:47;;;;;;;9.07;8.03;;;20.70;45.50;;;;;;5087970;28;20564;-55
2021/04/28 13:09:32;;;;;;;9.17;7.97;;;20.80;44.50;;;;;;5079432;28;20501;-59
2021/04/28 13:12:41;;;;;;;10.13;8.47;;;20.70;47.30;;;;;;5085604;28;20920;-59
2021/04/28 13:15:40;;;;;;;9.93;8.83;;;20.70;46.20;;;;;;5108671;28;20501;-59
2021/04/28 13:18:25;;;;;;;11.63;8.33;;;20.60;48.50;;;;;;5103339;28;21083;-58
2021/04/28 13:21:23;;;;;;;8.10;7.00;;;20.60;48.20;;;;;;5095077;28;20445;-58
2021/04/28 13:24:10;;;;;;;7.73;6.93;;;20.60;45.70;;;;;;5079773;28;20896;-59
2021/04/28 13:26:56;;;;;;;9.30;7.10;;;20.70;46.40;;;;;;5092975;28;20750;-58
2021/04/28 13:29:22;;;;;;;7.50;6.80;;;20.80;46.70;;;;;;5100816;28;20536;-58
2021/04/28 13:31:48;;;;;;;8.60;7.70;;;20.70;45.70;;;;;;5106845;28;20496;-59
2021/04/28 13:34:28;;;;;;;9.30;8.40;;;20.70;45.80;;;;;;5107974;28;20176;-59
2021/04/28 13:36:55;;;;;;;8.37;7.57;;;20.60;45.10;;;;;;5075846;28;20186;-59